Time;durP1;ratioP1;P1;durP2;ratioP2;P2;SDS_P1;SDS_P2;PMS_P1;PMS_P2;Temp;Humidity;BMP_temperature;BMP_pressure;BME280_temperature;BME280_humidity;BME280_pressure;Samples;Min_cycle;Max_cycle;Signal;HPM_P1;HPM_P2
2021/08/25 00:02:05;;;;;;;1.90;0.70;;;19.20;99.90;;;;;;5117376;28;20960;-67
2021/08/25 00:04:31;;;;;;;0.73;0.60;;;19.20;99.90;;;;;;5117651;28;20443;-65
2021/08/25 00:06:56;;;;;;;0.93;0.70;;;19.20;99.90;;;;;;5117403;28;20396;-66
2021/08/25 00:09:22;;;;;;;0.63;0.50;;;19.20;99.90;;;;;;5117409;28;20521;-65
2021/08/25 00:11:47;;;;;;;0.80;0.80;;;19.10;99.90;;;;;;5117283;28;20176;-65
2021/08/25 00:14:13;;;;;;;0.80;0.80;;;19.10;99.90;;;;;;5117324;28;20180;-65
2021/08/25 00:16:39;;;;;;;0.67;0.67;;;19.10;99.90;;;;;;5117392;28;20180;-66
2021/08/25 00:19:04;;;;;;;0.63;0.63;;;19.10;99.90;;;;;;5115924;28;20188;-65
2021/08/25 00:21:30;;;;;;;0.60;0.60;;;19.00;99.90;;;;;;5115751;28;20211;-65
2021/08/25 00:23:55;;;;;;;4.47;1.67;;;19.00;99.90;;;;;;5117171;28;20554;-65
2021/08/25 00:26:21;;;;;;;1.13;1.03;;;19.00;99.90;;;;;;5116715;28;20227;-65
2021/08/25 00:28:46;;;;;;;0.60;0.50;;;19.00;99.90;;;;;;5116920;28;20214;-65
2021/08/25 00:31:14;;;;;;;1.50;0.70;;;19.00;99.90;;;;;;5116825;28;20677;-65
2021/08/25 00:33:40;;;;;;;0.90;0.90;;;19.00;99.90;;;;;;5116833;27;20160;-65
2021/08/25 00:36:05;;;;;;;0.80;0.70;;;18.90;99.90;;;;;;5116665;28;20435;-66
2021/08/25 00:38:31;;;;;;;1.43;0.77;;;18.90;99.90;;;;;;5116877;28;20537;-65
2021/08/25 00:40:58;;;;;;;1.07;0.80;;;18.90;99.90;;;;;;5116670;28;20245;-65
2021/08/25 00:43:24;;;;;;;0.97;0.80;;;18.90;99.90;;;;;;5115310;28;20203;-65
2021/08/25 00:45:49;;;;;;;0.83;0.70;;;18.90;99.90;;;;;;5116537;28;20507;-65
2021/08/25 00:48:18;;;;;;;2.03;0.80;;;18.80;99.90;;;;;;5116555;28;20404;-65
2021/08/25 00:50:50;;;;;;;0.63;0.53;;;18.80;99.90;;;;;;5116909;28;21004;-66
2021/08/25 00:53:18;;;;;;;0.70;0.70;;;18.80;99.90;;;;;;5116472;27;20779;-66
2021/08/25 00:55:44;;;;;;;0.77;0.70;;;18.80;99.90;;;;;;5116844;28;20531;-65
2021/08/25 00:58:10;;;;;;;0.90;0.77;;;18.80;99.90;;;;;;5116411;28;20416;-66
2021/08/25 01:00:43;;;;;;;0.67;0.67;;;18.70;99.90;;;;;;5116760;27;20434;-66
2021/08/25 01:03:23;;;;;;;0.83;0.60;;;18.70;99.90;;;;;;5116308;28;20506;-65
2021/08/25 01:05:49;;;;;;;0.53;0.53;;;18.70;99.90;;;;;;5116295;28;20465;-65
2021/08/25 01:08:16;;;;;;;1.07;0.80;;;18.60;99.90;;;;;;5116179;28;20399;-66
2021/08/25 01:10:42;;;;;;;1.00;0.77;;;18.60;99.90;;;;;;5116612;28;20436;-65
2021/08/25 01:13:10;;;;;;;0.60;0.60;;;18.60;99.90;;;;;;5116069;28;20392;-66
2021/08/25 01:15:40;;;;;;;1.27;0.80;;;18.60;99.90;;;;;;5116363;28;20282;-65
2021/08/25 01:18:11;;;;;;;0.60;0.60;;;18.60;99.90;;;;;;5115908;28;20816;-65
2021/08/25 01:20:38;;;;;;;0.70;0.53;;;18.60;99.90;;;;;;5114815;28;20538;-66
2021/08/25 01:23:04;;;;;;;2.30;0.70;;;18.60;99.90;;;;;;5115813;28;20456;-65
2021/08/25 01:25:30;;;;;;;0.70;0.70;;;18.50;99.90;;;;;;5115836;28;20452;-65
2021/08/25 01:28:01;;;;;;;0.60;0.60;;;18.50;99.90;;;;;;5115812;28;20416;-67
2021/08/25 01:30:30;;;;;;;0.70;0.70;;;18.50;99.90;;;;;;5114321;28;20428;-66
2021/08/25 01:32:59;;;;;;;0.93;0.83;;;18.40;99.90;;;;;;5115713;28;20409;-66
2021/08/25 01:35:51;;;;;;;0.63;0.63;;;18.40;99.90;;;;;;5115515;28;20514;-64
2021/08/25 01:38:52;;;;;;;0.90;0.60;;;18.40;99.90;;;;;;5112280;28;20831;-65
2021/08/25 01:41:20;;;;;;;0.70;0.60;;;18.40;99.90;;;;;;5114271;28;20897;-66
2021/08/25 01:43:45;;;;;;;0.60;0.60;;;18.40;99.90;;;;;;5114103;28;20483;-65
2021/08/25 01:46:20;;;;;;;0.70;0.70;;;18.40;99.90;;;;;;5115298;28;20428;-65
2021/08/25 01:48:46;;;;;;;1.33;0.97;;;18.30;99.90;;;;;;5115343;28;20609;-65
2021/08/25 01:51:11;;;;;;;0.50;0.50;;;18.30;99.90;;;;;;5115267;28;20465;-66
2021/08/25 01:53:37;;;;;;;0.80;0.70;;;18.30;99.90;;;;;;5115331;28;20696;-65
2021/08/25 01:56:02;;;;;;;0.60;0.50;;;18.30;99.90;;;;;;5115126;28;20202;-64
2021/08/25 01:58:28;;;;;;;1.80;0.70;;;18.20;99.90;;;;;;5113840;28;20262;-65
2021/08/25 02:00:53;;;;;;;0.50;0.50;;;18.20;99.90;;;;;;5115080;28;20282;-65
2021/08/25 02:03:19;;;;;;;0.63;0.63;;;18.20;99.90;;;;;;5115004;28;20731;-65
2021/08/25 02:05:44;;;;;;;1.23;0.73;;;18.20;99.90;;;;;;5115461;28;20278;-65
2021/08/25 02:08:11;;;;;;;0.60;0.57;;;18.20;99.90;;;;;;5113272;28;20182;-65
2021/08/25 02:10:37;;;;;;;0.80;0.70;;;18.20;99.90;;;;;;5115591;28;20592;-65
2021/08/25 02:13:03;;;;;;;0.93;0.83;;;18.20;99.90;;;;;;5114892;28;20408;-66
2021/08/25 02:15:29;;;;;;;1.03;0.70;;;18.20;99.90;;;;;;5115294;28;20230;-65
2021/08/25 02:17:55;;;;;;;0.70;0.70;;;18.20;99.90;;;;;;5114902;28;20499;-66
2021/08/25 02:20:20;;;;;;;1.07;0.80;;;18.20;99.90;;;;;;5114992;28;20188;-64
2021/08/25 02:22:46;;;;;;;0.73;0.70;;;18.20;99.90;;;;;;5114717;28;20574;-65
2021/08/25 02:25:11;;;;;;;0.97;0.87;;;18.20;99.90;;;;;;5114046;28;20240;-65
2021/08/25 02:27:37;;;;;;;0.90;0.73;;;18.20;99.90;;;;;;5113913;28;20172;-65
2021/08/25 02:30:03;;;;;;;0.70;0.70;;;18.20;99.90;;;;;;5114050;28;20200;-65
2021/08/25 02:32:29;;;;;;;0.60;0.60;;;18.10;99.90;;;;;;5113797;28;20176;-66
2021/08/25 02:34:55;;;;;;;0.87;0.80;;;18.10;99.90;;;;;;5114023;28;20439;-65
2021/08/25 02:37:21;;;;;;;1.00;0.77;;;18.10;99.90;;;;;;5112454;28;20416;-66
2021/08/25 02:39:47;;;;;;;0.60;0.60;;;18.10;99.90;;;;;;5113583;28;20199;-65
2021/08/25 02:42:12;;;;;;;1.20;0.70;;;18.10;99.90;;;;;;5113525;28;20475;-66
2021/08/25 02:44:38;;;;;;;0.80;0.80;;;18.10;99.90;;;;;;5113765;28;20545;-65
2021/08/25 02:47:04;;;;;;;0.87;0.67;;;18.10;99.90;;;;;;5113615;28;20544;-66
2021/08/25 02:49:30;;;;;;;1.33;0.73;;;18.10;99.90;;;;;;5113434;28;20987;-65
2021/08/25 02:51:56;;;;;;;1.07;0.70;;;18.10;99.90;;;;;;5113595;28;20400;-66
2021/08/25 02:54:22;;;;;;;0.70;0.70;;;18.00;99.90;;;;;;5113595;28;20413;-65
2021/08/25 02:56:47;;;;;;;1.20;0.80;;;18.00;99.90;;;;;;5113459;28;20641;-66
2021/08/25 02:59:14;;;;;;;1.33;0.90;;;18.00;99.90;;;;;;5113277;28;20175;-66
2021/08/25 03:01:39;;;;;;;1.03;0.90;;;18.00;99.90;;;;;;5113443;28;20294;-65
2021/08/25 03:04:05;;;;;;;0.70;0.70;;;18.00;99.90;;;;;;5113257;28;20514;-66
2021/08/25 03:06:31;;;;;;;0.70;0.70;;;18.00;99.90;;;;;;5113310;28;20276;-65
2021/08/25 03:08:56;;;;;;;1.17;0.80;;;17.90;99.90;;;;;;5113343;28;20511;-65
2021/08/25 03:11:22;;;;;;;0.90;0.90;;;17.90;99.90;;;;;;5113258;28;20248;-65
2021/08/25 03:13:47;;;;;;;1.07;0.90;;;17.90;99.90;;;;;;5113285;28;20649;-65
2021/08/25 03:16:13;;;;;;;1.50;1.20;;;17.90;99.90;;;;;;5113151;28;20519;-66
2021/08/25 03:18:39;;;;;;;0.70;0.70;;;17.90;99.90;;;;;;5113260;28;20539;-65
2021/08/25 03:21:04;;;;;;;0.87;0.87;;;17.90;99.90;;;;;;5114304;28;20202;-66
2021/08/25 03:23:30;;;;;;;0.80;0.80;;;17.90;99.90;;;;;;5115379;28;20211;-65
2021/08/25 03:25:55;;;;;;;1.10;0.80;;;17.80;99.90;;;;;;5075586;28;1161182;-65
2021/08/25 03:28:21;;;;;;;0.90;0.83;;;17.80;99.90;;;;;;5118040;28;20649;-66
2021/08/25 03:30:47;;;;;;;0.80;0.80;;;17.80;99.90;;;;;;5118488;28;20205;-65
2021/08/25 03:33:12;;;;;;;1.10;1.00;;;17.80;99.90;;;;;;5118031;27;20180;-66
2021/08/25 03:35:38;;;;;;;1.00;0.90;;;17.80;99.90;;;;;;5118252;28;20187;-65
2021/08/25 03:38:03;;;;;;;0.70;0.70;;;17.80;99.90;;;;;;5117951;28;20623;-65
2021/08/25 03:40:29;;;;;;;0.97;0.97;;;17.80;99.90;;;;;;5116879;28;20202;-65
2021/08/25 03:42:55;;;;;;;1.20;1.10;;;17.80;99.90;;;;;;5117765;28;20761;-66
2021/08/25 03:45:21;;;;;;;1.77;1.20;;;17.70;99.90;;;;;;5118095;28;20206;-65
2021/08/25 03:47:46;;;;;;;1.20;1.10;;;17.70;99.90;;;;;;5117916;28;20561;-65
2021/08/25 03:50:12;;;;;;;1.03;1.00;;;17.70;99.90;;;;;;5117998;28;20231;-66
2021/08/25 03:52:37;;;;;;;1.47;0.93;;;17.70;99.90;;;;;;5117682;28;20215;-66
2021/08/25 03:55:03;;;;;;;1.17;1.07;;;17.60;99.90;;;;;;5117857;28;20204;-65
2021/08/25 03:57:29;;;;;;;0.93;0.90;;;17.60;99.90;;;;;;5117648;28;20179;-65
2021/08/25 03:59:54;;;;;;;1.27;1.17;;;17.50;99.90;;;;;;5117453;28;20913;-66
2021/08/25 04:02:20;;;;;;;1.87;1.20;;;17.50;99.90;;;;;;5115950;28;20234;-66
2021/08/25 04:04:46;;;;;;;1.67;1.30;;;17.50;99.90;;;;;;5117622;28;20191;-65
2021/08/25 04:07:12;;;;;;;1.67;1.40;;;17.40;99.90;;;;;;5117338;28;20184;-65
2021/08/25 04:09:39;;;;;;;1.30;1.20;;;17.40;99.90;;;;;;5117123;28;20223;-65
2021/08/25 04:12:05;;;;;;;1.10;1.07;;;17.40;99.90;;;;;;5117275;28;20451;-65
2021/08/25 04:14:30;;;;;;;1.50;1.40;;;17.40;99.90;;;;;;5117591;28;20831;-65
2021/08/25 04:16:56;;;;;;;1.50;1.40;;;17.40;99.90;;;;;;5117240;28;20207;-65
2021/08/25 04:19:21;;;;;;;1.63;1.30;;;17.40;99.90;;;;;;5117163;28;20254;-66
2021/08/25 04:21:47;;;;;;;2.10;1.43;;;17.40;99.90;;;;;;5115690;28;20199;-65
2021/08/25 04:24:13;;;;;;;1.50;1.40;;;17.40;99.90;;;;;;5115783;28;20196;-66
2021/08/25 04:26:41;;;;;;;1.40;1.30;;;17.40;99.90;;;;;;5116140;28;20187;-65
2021/08/25 04:29:07;;;;;;;1.50;1.30;;;17.40;99.90;;;;;;5117076;28;20174;-66
2021/08/25 04:31:32;;;;;;;2.07;1.23;;;17.40;99.90;;;;;;5115108;28;21051;-65
2021/08/25 04:33:58;;;;;;;1.47;1.37;;;17.40;99.90;;;;;;5116947;28;20678;-65
2021/08/25 04:36:24;;;;;;;1.83;1.70;;;17.40;99.90;;;;;;5116817;28;20278;-65
2021/08/25 04:38:49;;;;;;;1.57;1.30;;;17.40;99.90;;;;;;5116088;28;20241;-65
2021/08/25 04:41:15;;;;;;;1.90;1.60;;;17.40;99.90;;;;;;5116174;28;20202;-64
2021/08/25 04:43:40;;;;;;;1.13;1.03;;;17.40;99.90;;;;;;5116460;28;20714;-65
2021/08/25 04:46:06;;;;;;;2.13;1.30;;;17.40;99.90;;;;;;5116609;28;20188;-65
2021/08/25 04:48:31;;;;;;;1.67;1.57;;;17.40;99.90;;;;;;5131567;27;20173;-66
2021/08/25 04:50:57;;;;;;;1.83;1.73;;;17.40;99.90;;;;;;5128819;27;20196;-65
2021/08/25 04:53:23;;;;;;;2.33;1.60;;;17.40;99.90;;;;;;5102893;28;20176;-65
2021/08/25 04:55:49;;;;;;;1.70;1.30;;;17.40;99.90;;;;;;5116741;28;20196;-64
2021/08/25 04:58:15;;;;;;;1.90;1.77;;;17.40;99.90;;;;;;5116383;28;20171;-65
2021/08/25 05:00:40;;;;;;;1.50;1.40;;;17.40;99.90;;;;;;5116743;28;20458;-65
2021/08/25 05:03:06;;;;;;;1.70;1.60;;;17.40;99.90;;;;;;5115946;27;20213;-66
2021/08/25 05:05:32;;;;;;;2.00;1.80;;;17.40;99.90;;;;;;5116714;28;20315;-65
2021/08/25 05:07:57;;;;;;;1.67;1.57;;;17.30;99.90;;;;;;5114888;28;20176;-65
2021/08/25 05:10:23;;;;;;;1.50;1.40;;;17.30;99.90;;;;;;5114919;28;20278;-65
2021/08/25 05:12:48;;;;;;;1.73;1.63;;;17.30;99.90;;;;;;5113429;28;20187;-65
2021/08/25 05:15:14;;;;;;;1.70;1.60;;;17.30;99.90;;;;;;5115803;28;20556;-66
2021/08/25 05:17:40;;;;;;;1.97;1.57;;;17.30;99.90;;;;;;5115917;28;20172;-65
2021/08/25 05:20:07;;;;;;;4.77;2.13;;;17.40;99.90;;;;;;5116321;28;20192;-65
2021/08/25 05:22:33;;;;;;;2.23;1.90;;;17.40;99.90;;;;;;5113444;28;20719;-65
2021/08/25 05:24:59;;;;;;;1.90;1.80;;;17.40;99.90;;;;;;5115167;27;20478;-65
2021/08/25 05:27:25;;;;;;;1.80;1.50;;;17.40;99.90;;;;;;5115509;28;20790;-65
2021/08/25 05:29:51;;;;;;;2.33;2.00;;;17.40;99.90;;;;;;5114936;28;20204;-65
2021/08/25 05:32:17;;;;;;;2.20;2.00;;;17.40;99.90;;;;;;5137799;27;20440;-65
2021/08/25 05:34:43;;;;;;;2.30;2.10;;;17.40;99.90;;;;;;5113343;28;20448;-65
2021/08/25 05:37:08;;;;;;;2.50;2.30;;;17.50;99.90;;;;;;5110719;28;20196;-66
2021/08/25 05:39:34;;;;;;;2.37;2.17;;;17.50;99.90;;;;;;5100563;28;20452;-65
2021/08/25 05:42:00;;;;;;;2.33;2.13;;;17.50;99.90;;;;;;5114544;28;20452;-65
2021/08/25 05:44:25;;;;;;;3.33;2.73;;;17.50;99.90;;;;;;5115012;28;20176;-65
2021/08/25 05:46:51;;;;;;;3.10;2.00;;;17.60;99.90;;;;;;5095673;28;20216;-65
2021/08/25 05:49:16;;;;;;;2.30;2.10;;;17.60;99.90;;;;;;5110483;28;20186;-65
2021/08/25 05:51:42;;;;;;;2.97;2.23;;;17.70;99.90;;;;;;5114766;28;20660;-66
2021/08/25 05:54:09;;;;;;;2.57;2.37;;;17.70;99.90;;;;;;5114016;28;20168;-66
2021/08/25 05:56:35;;;;;;;2.90;2.20;;;17.70;99.90;;;;;;5112620;28;20219;-66
2021/08/25 05:59:00;;;;;;;4.87;2.30;;;17.70;99.90;;;;;;5108160;27;20431;-65
2021/08/25 06:01:26;;;;;;;3.20;2.67;;;17.80;99.90;;;;;;5105384;28;20199;-65
2021/08/25 06:03:52;;;;;;;2.60;2.17;;;17.80;99.90;;;;;;5109169;28;20225;-65
2021/08/25 06:06:17;;;;;;;2.83;2.37;;;17.80;99.90;;;;;;5107340;28;20223;-66
2021/08/25 06:08:43;;;;;;;2.70;2.50;;;17.90;99.90;;;;;;5109743;28;20187;-65
2021/08/25 06:11:08;;;;;;;2.73;2.47;;;18.00;99.90;;;;;;5109530;28;20516;-65
2021/08/25 06:13:34;;;;;;;3.63;2.20;;;18.00;99.90;;;;;;5108155;28;20183;-67
2021/08/25 06:16:00;;;;;;;2.80;2.40;;;18.20;99.90;;;;;;5110103;28;20195;-66
2021/08/25 06:18:26;;;;;;;3.33;2.97;;;18.30;99.90;;;;;;5110458;27;20558;-67
2021/08/25 06:20:52;;;;;;;2.13;1.93;;;18.40;99.90;;;;;;5111396;28;20216;-67
2021/08/25 06:23:18;;;;;;;4.53;3.40;;;18.50;99.90;;;;;;5111265;28;20212;-67
2021/08/25 06:25:43;;;;;;;3.20;2.87;;;18.60;99.90;;;;;;5110070;28;20503;-65
2021/08/25 06:28:10;;;;;;;3.83;2.67;;;18.70;99.90;;;;;;5109931;28;20416;-66
2021/08/25 06:30:36;;;;;;;3.13;2.77;;;18.80;99.90;;;;;;5108143;28;20243;-65
2021/08/25 06:33:02;;;;;;;2.90;2.40;;;18.90;99.90;;;;;;5106622;28;20462;-66
2021/08/25 06:35:27;;;;;;;5.53;3.00;;;19.00;99.90;;;;;;5100087;28;20222;-65
2021/08/25 06:37:53;;;;;;;3.30;2.80;;;19.10;99.90;;;;;;5111200;28;20184;-66
2021/08/25 06:40:18;;;;;;;4.03;2.60;;;19.20;99.90;;;;;;5102268;28;20665;-65
2021/08/25 06:42:44;;;;;;;4.83;2.77;;;19.30;99.90;;;;;;5113681;28;20228;-66
2021/08/25 06:45:10;;;;;;;3.83;2.63;;;19.40;99.90;;;;;;5112946;28;20196;-65
2021/08/25 06:47:36;;;;;;;3.87;3.20;;;19.50;99.90;;;;;;5112779;28;20226;-66
2021/08/25 06:50:03;;;;;;;4.40;2.20;;;19.60;99.90;;;;;;5111587;28;20524;-66
2021/08/25 06:52:29;;;;;;;2.50;2.30;;;19.60;99.90;;;;;;5111524;28;20418;-66
2021/08/25 06:54:54;;;;;;;3.60;2.70;;;19.60;99.90;;;;;;5110165;28;20448;-66
2021/08/25 06:57:20;;;;;;;3.53;2.83;;;19.60;99.90;;;;;;5111468;28;20571;-65
2021/08/25 06:59:45;;;;;;;2.53;2.30;;;19.60;99.90;;;;;;5105697;28;20689;-67
2021/08/25 07:02:11;;;;;;;3.80;2.60;;;19.70;99.90;;;;;;5093874;28;20208;-65
2021/08/25 07:04:44;;;;;;;3.10;2.83;;;19.70;99.90;;;;;;5105694;28;20259;-66
2021/08/25 07:07:10;;;;;;;2.80;2.50;;;19.80;99.90;;;;;;5102743;28;20233;-66
2021/08/25 07:09:35;;;;;;;3.33;2.70;;;19.90;99.90;;;;;;5094569;28;20463;-66
2021/08/25 07:12:01;;;;;;;3.87;2.80;;;19.90;99.90;;;;;;5102645;28;20237;-66
2021/08/25 07:14:27;;;;;;;4.10;2.40;;;20.10;99.90;;;;;;5105281;28;20175;-66
2021/08/25 07:16:52;;;;;;;3.50;2.90;;;20.20;99.90;;;;;;5111228;28;20188;-66
2021/08/25 07:19:18;;;;;;;3.30;2.70;;;20.30;99.90;;;;;;5107954;28;20288;-65
2021/08/25 07:21:44;;;;;;;5.00;2.97;;;20.40;99.90;;;;;;5106744;28;20188;-67
2021/08/25 07:24:09;;;;;;;4.03;2.70;;;20.50;99.90;;;;;;5107860;28;20465;-66
2021/08/25 07:26:35;;;;;;;4.37;2.80;;;20.50;99.90;;;;;;5113047;28;20216;-66
2021/08/25 07:29:01;;;;;;;2.83;2.50;;;20.60;99.90;;;;;;5103902;28;20186;-65
2021/08/25 07:31:26;;;;;;;3.23;2.73;;;20.60;99.90;;;;;;5107573;28;20201;-66
2021/08/25 07:33:52;;;;;;;3.13;2.40;;;20.60;99.90;;;;;;5110612;28;20632;-66
2021/08/25 07:36:18;;;;;;;3.77;2.73;;;20.60;99.90;;;;;;5094830;28;20765;-66
2021/08/25 07:38:44;;;;;;;3.80;2.60;;;20.70;99.90;;;;;;5110628;28;20419;-66
2021/08/25 07:41:09;;;;;;;4.07;3.00;;;20.80;99.90;;;;;;5101404;28;20235;-66
2021/08/25 07:43:35;;;;;;;5.53;2.93;;;20.80;99.90;;;;;;5109016;28;20282;-65
2021/08/25 07:46:00;;;;;;;3.50;2.80;;;20.80;99.90;;;;;;5103944;28;20194;-67
2021/08/25 07:48:26;;;;;;;4.33;2.60;;;20.90;99.90;;;;;;5077515;28;20568;-66
2021/08/25 07:50:52;;;;;;;3.10;2.80;;;20.90;99.90;;;;;;5132616;27;20223;-66
2021/08/25 07:53:19;;;;;;;3.73;2.80;;;20.90;99.90;;;;;;5100239;28;20267;-66
2021/08/25 07:55:44;;;;;;;3.17;2.67;;;21.00;99.90;;;;;;5106469;28;20467;-66
2021/08/25 07:58:10;;;;;;;3.47;2.87;;;21.00;99.90;;;;;;5097777;28;20473;-66
2021/08/25 08:00:36;;;;;;;3.90;3.10;;;21.10;99.90;;;;;;5102133;28;20208;-67
2021/08/25 08:03:01;;;;;;;3.57;2.60;;;21.10;99.90;;;;;;5102284;28;20212;-67
2021/08/25 08:05:27;;;;;;;2.90;2.57;;;21.10;99.90;;;;;;5096769;28;20208;-65
2021/08/25 08:07:52;;;;;;;4.03;2.70;;;21.20;99.90;;;;;;5113743;28;20190;-67
2021/08/25 08:10:18;;;;;;;3.63;2.80;;;21.20;99.90;;;;;;5107662;28;20688;-65
2021/08/25 08:12:44;;;;;;;4.00;3.10;;;21.20;99.90;;;;;;5111371;28;20191;-65
2021/08/25 08:15:11;;;;;;;3.57;2.43;;;21.20;99.90;;;;;;5104568;28;20202;-66
2021/08/25 08:17:39;;;;;;;2.80;2.40;;;21.20;99.90;;;;;;5110869;28;20180;-66
2021/08/25 08:20:06;;;;;;;3.10;2.47;;;21.30;99.90;;;;;;5111658;28;20452;-65
2021/08/25 08:22:31;;;;;;;4.27;3.10;;;21.30;99.90;;;;;;5112050;28;20457;-67
2021/08/25 08:24:57;;;;;;;3.27;2.30;;;21.30;99.90;;;;;;5108570;28;20516;-66
2021/08/25 08:27:22;;;;;;;3.83;3.13;;;21.30;99.90;;;;;;5106488;28;20184;-66
2021/08/25 08:29:48;;;;;;;3.30;3.00;;;21.30;99.90;;;;;;5103463;28;20644;-66
2021/08/25 08:32:14;;;;;;;3.23;2.93;;;21.30;99.90;;;;;;5111390;28;20646;-66
2021/08/25 08:34:39;;;;;;;3.33;3.00;;;21.40;99.90;;;;;;5106456;28;20199;-67
2021/08/25 08:37:05;;;;;;;2.70;2.40;;;21.40;99.90;;;;;;5112998;28;20510;-64
2021/08/25 08:39:31;;;;;;;3.70;2.80;;;21.50;99.90;;;;;;5113184;28;20661;-64
2021/08/25 08:41:57;;;;;;;3.77;2.60;;;21.50;99.90;;;;;;5112855;28;20465;-66
2021/08/25 08:44:25;;;;;;;2.83;2.10;;;21.60;99.90;;;;;;5110660;28;20179;-65
2021/08/25 08:46:51;;;;;;;3.73;2.63;;;21.60;99.90;;;;;;5103231;28;20233;-66
2021/08/25 08:49:17;;;;;;;2.60;2.37;;;21.70;99.90;;;;;;5099624;28;20431;-66
2021/08/25 08:51:43;;;;;;;5.33;2.43;;;21.70;99.90;;;;;;5113287;28;20768;-66
2021/08/25 08:54:09;;;;;;;2.97;2.37;;;21.80;99.90;;;;;;5134721;27;20450;-66
2021/08/25 08:56:35;;;;;;;2.83;2.37;;;21.90;99.90;;;;;;5098648;28;20487;-67
2021/08/25 08:59:01;;;;;;;4.07;2.70;;;22.00;99.90;;;;;;5092020;28;20175;-67
2021/08/25 09:01:28;;;;;;;2.30;2.10;;;22.00;99.90;;;;;;5095333;28;20824;-66
2021/08/25 09:03:53;;;;;;;5.07;2.77;;;22.10;99.90;;;;;;5102307;28;20478;-65
2021/08/25 09:06:19;;;;;;;4.43;2.40;;;22.10;99.90;;;;;;5101615;28;20444;-67
2021/08/25 09:08:46;;;;;;;3.10;2.80;;;22.10;99.90;;;;;;5105719;28;20183;-67
2021/08/25 09:11:17;;;;;;;4.37;2.53;;;22.10;99.90;;;;;;5102632;28;20212;-66
2021/08/25 09:13:48;;;;;;;3.83;2.73;;;22.00;99.90;;;;;;5099832;28;20427;-66
2021/08/25 09:16:31;;;;;;;2.70;2.23;;;22.00;99.90;;;;;;5112718;28;20432;-67
2021/08/25 09:19:01;;;;;;;3.00;2.70;;;22.00;99.90;;;;;;5110115;28;20451;-66
2021/08/25 09:21:38;;;;;;;3.57;2.70;;;22.00;99.90;;;;;;5111488;28;20432;-66
2021/08/25 09:24:05;;;;;;;2.73;2.50;;;21.90;99.90;;;;;;5101995;28;20556;-66
2021/08/25 09:26:32;;;;;;;5.27;2.43;;;21.90;99.90;;;;;;5110815;27;20471;-66
2021/08/25 09:29:15;;;;;;;3.10;2.50;;;21.90;99.90;;;;;;5109647;28;20444;-67
2021/08/25 09:31:45;;;;;;;5.50;2.73;;;21.90;99.90;;;;;;5106908;28;20682;-65
2021/08/25 09:34:43;;;;;;;3.20;2.30;;;21.90;99.90;;;;;;5102173;28;20432;-66
2021/08/25 09:37:12;;;;;;;3.10;2.30;;;21.90;99.90;;;;;;5072646;28;20498;-66
2021/08/25 09:39:43;;;;;;;6.60;2.40;;;21.90;99.90;;;;;;5105551;28;20471;-66
2021/08/25 09:42:09;;;;;;;1.87;1.63;;;22.00;99.90;;;;;;5106552;28;20468;-65
2021/08/25 09:44:35;;;;;;;5.90;2.40;;;22.00;99.90;;;;;;5111443;28;20977;-67
2021/08/25 09:47:00;;;;;;;2.47;2.27;;;22.00;99.90;;;;;;5110384;28;20436;-66
2021/08/25 09:49:26;;;;;;;3.03;2.63;;;22.10;99.90;;;;;;5107372;28;20180;-66
2021/08/25 09:51:54;;;;;;;2.60;2.20;;;22.10;99.90;;;;;;5108076;28;20260;-67
2021/08/25 09:54:20;;;;;;;4.00;3.33;;;22.10;99.90;;;;;;5104423;28;20175;-66
2021/08/25 09:56:50;;;;;;;3.57;2.70;;;22.10;99.90;;;;;;5104386;28;20419;-66
2021/08/25 09:59:15;;;;;;;3.10;2.47;;;22.10;99.90;;;;;;5106829;28;20776;-65
2021/08/25 10:01:42;;;;;;;2.73;2.53;;;22.10;99.90;;;;;;5106993;28;20430;-66
2021/08/25 10:04:11;;;;;;;2.73;2.47;;;22.10;99.90;;;;;;5114778;28;20239;-67
2021/08/25 10:06:39;;;;;;;3.03;2.50;;;22.10;99.90;;;;;;5114416;27;20400;-67
2021/08/25 10:09:06;;;;;;;5.67;2.60;;;22.00;99.90;;;;;;5114174;28;20790;-66
2021/08/25 10:11:34;;;;;;;3.10;2.60;;;22.00;99.90;;;;;;5112568;28;20481;-67
2021/08/25 10:14:05;;;;;;;7.60;2.93;;;22.00;99.90;;;;;;5104909;28;20459;-66
2021/08/25 10:16:42;;;;;;;3.67;2.70;;;22.00;99.90;;;;;;5136391;27;20572;-67
2021/08/25 10:19:27;;;;;;;4.50;3.30;;;22.00;99.90;;;;;;5109146;28;20427;-65
2021/08/25 10:21:58;;;;;;;6.07;3.57;;;22.00;99.90;;;;;;5103602;28;20431;-67
2021/08/25 10:24:23;;;;;;;4.00;2.60;;;22.10;99.90;;;;;;5106297;28;20428;-66
2021/08/25 10:27:07;;;;;;;3.50;2.07;;;22.10;99.90;;;;;;5108415;28;20976;-67
2021/08/25 10:29:33;;;;;;;2.73;2.40;;;22.10;99.90;;;;;;5104997;28;20199;-66
2021/08/25 10:31:59;;;;;;;3.60;2.43;;;22.10;99.90;;;;;;5090654;28;20417;-66
2021/08/25 10:34:30;;;;;;;4.50;2.90;;;22.20;99.90;;;;;;5090101;28;20409;-66
2021/08/25 10:37:11;;;;;;;2.60;2.40;;;22.20;99.90;;;;;;5100642;28;20434;-65
2021/08/25 10:39:37;;;;;;;4.70;3.13;;;22.30;99.90;;;;;;5102330;28;20785;-65
2021/08/25 10:42:05;;;;;;;3.60;2.83;;;22.40;99.90;;;;;;5109892;28;20462;-66
2021/08/25 10:44:47;;;;;;;3.83;2.87;;;22.40;99.90;;;;;;5105400;28;20451;-66
2021/08/25 10:47:15;;;;;;;3.40;2.80;;;22.50;99.90;;;;;;5091694;28;20757;-66
2021/08/25 10:49:46;;;;;;;3.43;2.60;;;22.60;99.90;;;;;;5109971;28;21012;-65
2021/08/25 10:52:15;;;;;;;2.77;2.23;;;22.70;99.90;;;;;;5103413;28;20435;-66
2021/08/25 10:54:51;;;;;;;4.70;3.30;;;22.80;99.90;;;;;;5100211;28;20460;-66
2021/08/25 10:57:18;;;;;;;3.20;2.80;;;22.90;99.90;;;;;;5106316;28;20451;-67
2021/08/25 10:59:44;;;;;;;4.80;2.40;;;23.00;99.90;;;;;;5106166;28;21053;-66
2021/08/25 11:02:11;;;;;;;3.00;2.50;;;23.00;99.90;;;;;;5103148;28;20563;-67
2021/08/25 11:04:36;;;;;;;3.50;2.53;;;23.10;99.90;;;;;;5103899;28;20479;-66
2021/08/25 11:07:11;;;;;;;2.93;1.97;;;23.20;99.90;;;;;;5096888;28;21067;-66
2021/08/25 11:09:44;;;;;;;3.30;2.70;;;23.30;99.90;;;;;;5101674;28;20198;-67
2021/08/25 11:12:13;;;;;;;3.40;2.50;;;23.30;99.90;;;;;;5107359;28;20424;-65
2021/08/25 11:14:58;;;;;;;2.80;2.53;;;23.40;99.90;;;;;;5103817;28;20450;-66
2021/08/25 11:17:28;;;;;;;3.47;2.73;;;23.50;99.90;;;;;;5097833;28;20447;-66
2021/08/25 11:19:59;;;;;;;2.80;2.50;;;23.50;99.90;;;;;;5107211;28;20451;-66
2021/08/25 11:22:29;;;;;;;3.43;2.90;;;23.50;99.90;;;;;;5107982;28;20617;-66
2021/08/25 11:25:00;;;;;;;4.27;2.73;;;23.60;99.90;;;;;;5109593;28;20861;-66
2021/08/25 11:27:30;;;;;;;3.33;2.43;;;23.60;99.90;;;;;;5103178;28;20651;-66
2021/08/25 11:30:06;;;;;;;2.30;1.70;;;23.50;99.90;;;;;;5100731;28;20448;-67
2021/08/25 11:32:34;;;;;;;3.00;2.50;;;23.50;99.90;;;;;;5098834;28;20916;-66
2021/08/25 11:35:00;;;;;;;3.50;2.77;;;23.50;99.90;;;;;;5094313;28;20456;-66
2021/08/25 11:37:25;;;;;;;4.00;2.90;;;23.50;99.90;;;;;;5101329;28;20432;-67
2021/08/25 11:40:03;;;;;;;4.00;2.43;;;23.50;99.90;;;;;;5098760;28;20461;-67
2021/08/25 11:42:34;;;;;;;3.43;2.27;;;23.50;99.90;;;;;;5107886;28;20517;-65
2021/08/25 11:45:00;;;;;;;4.17;2.60;;;23.50;99.90;;;;;;5105306;28;20447;-66
2021/08/25 11:47:27;;;;;;;3.30;2.53;;;23.50;99.90;;;;;;5102372;28;20787;-66
2021/08/25 11:49:57;;;;;;;3.80;2.03;;;23.50;99.90;;;;;;5106392;28;20529;-67
2021/08/25 11:52:34;;;;;;;3.03;2.63;;;23.60;99.90;;;;;;5100299;28;20424;-66
2021/08/25 11:55:04;;;;;;;3.67;2.77;;;23.60;99.90;;;;;;5103475;28;20458;-67
2021/08/25 11:57:46;;;;;;;2.87;2.57;;;23.60;99.90;;;;;;5111264;27;20485;-67
2021/08/25 12:00:17;;;;;;;2.90;2.33;;;23.60;99.90;;;;;;5105818;28;20538;-67
2021/08/25 12:03:03;;;;;;;6.97;2.50;;;23.60;99.90;;;;;;5108621;28;20464;-66
2021/08/25 12:05:31;;;;;;;2.57;2.23;;;23.60;99.90;;;;;;5097759;28;20441;-66
2021/08/25 12:08:08;;;;;;;3.07;2.50;;;23.60;99.90;;;;;;5099659;28;20431;-67
2021/08/25 12:11:02;;;;;;;4.43;2.63;;;23.60;99.90;;;;;;5100734;28;20804;-65
2021/08/25 12:13:39;;;;;;;4.43;2.37;;;23.60;99.90;;;;;;5098580;28;20950;-66
2021/08/25 12:16:10;;;;;;;2.40;1.87;;;23.60;99.90;;;;;;5126458;27;20815;-66
2021/08/25 12:18:50;;;;;;;4.87;2.33;;;23.70;99.90;;;;;;5109862;28;21013;-66
2021/08/25 12:21:16;;;;;;;2.50;2.30;;;23.70;99.90;;;;;;5114118;28;20459;-66
2021/08/25 12:24:09;;;;;;;3.37;2.30;;;23.70;99.90;;;;;;5107410;28;20792;-66
2021/08/25 12:26:37;;;;;;;3.00;2.37;;;23.70;99.90;;;;;;5102228;28;20508;-66
2021/08/25 12:29:06;;;;;;;2.93;2.20;;;23.70;99.90;;;;;;5101941;28;20466;-67
2021/08/25 12:31:33;;;;;;;2.80;2.50;;;23.70;99.90;;;;;;5142460;27;20439;-66
2021/08/25 12:34:10;;;;;;;2.40;2.20;;;23.70;99.90;;;;;;5112787;28;20434;-66
2021/08/25 12:36:38;;;;;;;3.13;2.30;;;23.80;99.90;;;;;;5131615;27;20434;-66
2021/08/25 12:39:09;;;;;;;2.97;2.20;;;23.80;99.90;;;;;;5103856;28;20505;-66
2021/08/25 12:41:36;;;;;;;2.23;1.83;;;23.80;99.60;;;;;;5106894;28;20448;-67
2021/08/25 12:44:02;;;;;;;2.43;2.23;;;23.80;99.70;;;;;;5100304;28;20518;-65
2021/08/25 12:46:28;;;;;;;3.20;2.20;;;23.80;99.90;;;;;;5104186;28;20479;-67
2021/08/25 12:48:53;;;;;;;4.40;3.50;;;23.80;99.80;;;;;;5102333;28;20468;-66
2021/08/25 12:51:19;;;;;;;3.60;3.10;;;23.80;99.70;;;;;;5107040;28;20203;-66